createdAt,value
2018-05-08T00:02:20.004Z,101010.16
2018-05-08T00:04:48.178Z,101012.67
2018-05-08T00:07:16.360Z,101011.17
2018-05-08T00:09:44.552Z,101013.20
2018-05-08T00:12:12.745Z,101016.30
2018-05-08T00:14:40.906Z,101014.95
2018-05-08T00:17:09.091Z,101012.89
2018-05-08T00:19:37.266Z,101014.74
2018-05-08T00:22:05.451Z,101015.77
2018-05-08T00:24:33.604Z,101010.11
2018-05-08T00:27:01.790Z,101005.59
2018-05-08T00:29:29.958Z,100997.95
2018-05-08T00:31:58.152Z,101005.68
2018-05-08T00:34:26.313Z,100999.66
2018-05-08T00:36:54.495Z,100994.53
2018-05-08T00:39:22.653Z,100991.92
2018-05-08T00:41:50.859Z,100988.42
2018-05-08T00:44:19.065Z,100990.58
2018-05-08T00:46:47.221Z,100986.64
2018-05-08T00:49:15.821Z,100985.06
2018-05-08T00:51:43.992Z,100985.42
2018-05-08T00:54:12.178Z,100974.77
2018-05-08T00:56:40.382Z,100976.06
2018-05-08T00:59:08.539Z,100976.92
2018-05-08T01:01:36.731Z,100974.53
2018-05-08T01:04:04.899Z,100967.06
2018-05-08T01:06:33.119Z,100966.48
2018-05-08T01:09:01.306Z,100966.61
2018-05-08T01:11:29.520Z,100964.22
2018-05-08T01:13:57.678Z,100965.48
2018-05-08T01:16:25.895Z,100964.80
2018-05-08T01:18:54.080Z,100961.80
2018-05-08T01:21:22.252Z,100959.66
2018-05-08T01:23:50.452Z,100959.20
2018-05-08T01:26:18.669Z,100961.00
2018-05-08T01:28:46.846Z,100950.39
2018-05-08T01:31:15.040Z,100957.67
2018-05-08T01:33:43.207Z,100953.18
2018-05-08T01:36:11.407Z,100951.14
2018-05-08T01:38:39.540Z,100954.44
2018-05-08T01:41:07.730Z,100947.30
2018-05-08T01:43:35.919Z,100950.85
2018-05-08T01:46:04.099Z,100945.29
2018-05-08T01:48:32.272Z,100945.45
2018-05-08T01:51:00.454Z,100943.91
2018-05-08T01:53:28.608Z,100940.17
2018-05-08T01:55:56.796Z,100939.50
2018-05-08T01:58:24.945Z,100935.95
2018-05-08T02:00:53.103Z,100941.27
2018-05-08T02:03:21.272Z,100935.19
2018-05-08T02:05:49.425Z,100935.66
2018-05-08T02:08:17.614Z,100926.30
2018-05-08T02:10:45.815Z,100935.45
2018-05-08T02:13:13.982Z,100925.22
2018-05-08T02:15:42.163Z,100927.14
2018-05-08T02:18:10.328Z,100925.70
2018-05-08T02:20:38.542Z,100915.95
2018-05-08T02:23:06.688Z,100916.24
2018-05-08T02:25:34.857Z,100918.42
2018-05-08T02:28:03.045Z,100908.06
2018-05-08T02:30:31.226Z,100904.97
2018-05-08T02:32:59.400Z,100907.38
2018-05-08T02:35:27.580Z,100915.17
2018-05-08T02:37:55.774Z,100905.42
2018-05-08T02:40:23.961Z,100904.91
2018-05-08T02:42:52.151Z,100904.99
2018-05-08T02:45:20.346Z,100904.05
2018-05-08T02:47:48.529Z,100902.77
2018-05-08T02:50:16.720Z,100897.41
2018-05-08T02:52:44.855Z,100894.78
2018-05-08T02:55:13.020Z,100896.76
2018-05-08T02:57:41.213Z,100899.83
2018-05-08T03:00:09.386Z,100890.53
2018-05-08T03:02:37.560Z,100892.45
2018-05-08T03:05:05.733Z,100900.76
2018-05-08T03:07:33.898Z,100900.86
2018-05-08T03:10:02.094Z,100897.94
2018-05-08T03:12:30.269Z,100894.39
2018-05-08T03:14:58.476Z,100893.20
2018-05-08T03:17:26.637Z,100887.99
2018-05-08T03:19:54.785Z,100885.17
2018-05-08T03:22:23.038Z,100889.78
2018-05-08T03:24:51.123Z,100885.64
2018-05-08T03:27:19.286Z,100883.97
2018-05-08T03:29:47.473Z,100875.25
2018-05-08T03:32:15.703Z,100883.89
2018-05-08T03:34:43.889Z,100880.38
2018-05-08T03:37:12.089Z,100880.34
2018-05-08T03:39:40.285Z,100884.11
2018-05-08T03:42:08.469Z,100879.97
2018-05-08T03:44:36.683Z,100885.02
2018-05-08T03:47:04.798Z,100877.10
2018-05-08T03:49:32.985Z,100881.72
2018-05-08T03:52:01.134Z,100878.81
2018-05-08T03:54:29.305Z,100873.09
2018-05-08T03:56:57.490Z,100878.91
2018-05-08T03:59:25.688Z,100871.59
2018-05-08T04:02:30.467Z,100875.78
2018-05-08T04:05:46.441Z,100873.55
2018-05-08T04:08:31.117Z,100865.78
2018-05-08T04:10:59.285Z,100867.87
2018-05-08T04:13:27.468Z,100863.99
2018-05-08T04:15:55.659Z,100864.33
2018-05-08T04:18:24.955Z,100863.52
2018-05-08T04:20:53.147Z,100860.98
2018-05-08T04:23:21.330Z,100858.97
2018-05-08T04:25:49.481Z,100857.85
2018-05-08T04:28:17.688Z,100852.55
2018-05-08T04:30:45.844Z,100850.79
2018-05-08T04:33:14.007Z,100851.05
2018-05-08T04:35:42.193Z,100853.44
2018-05-08T04:38:10.355Z,100847.03
2018-05-08T04:40:38.542Z,100844.64
2018-05-08T04:43:06.742Z,100845.66
2018-05-08T04:45:34.929Z,100848.45
2018-05-08T04:48:03.147Z,100842.30
2018-05-08T04:50:31.335Z,100845.63
2018-05-08T04:52:59.492Z,100843.55
2018-05-08T04:55:27.688Z,100842.02
2018-05-08T04:57:55.863Z,100842.83
2018-05-08T05:00:24.022Z,100841.94
2018-05-08T05:02:52.206Z,100842.83
2018-05-08T05:05:20.379Z,100845.39
2018-05-08T05:07:48.554Z,100841.24
2018-05-08T05:10:16.733Z,100845.94
2018-05-08T05:12:44.916Z,100837.70
2018-05-08T05:15:13.108Z,100838.37
2018-05-08T05:17:41.251Z,100837.03
2018-05-08T05:20:09.496Z,100836.72
2018-05-08T05:22:37.663Z,100840.77
2018-05-08T05:25:05.837Z,100842.85
2018-05-08T05:27:34.039Z,100848.87
2018-05-08T05:30:02.212Z,100845.71
2018-05-08T05:32:30.394Z,100851.03
2018-05-08T05:34:58.576Z,100851.22
2018-05-08T05:37:26.796Z,100850.16
2018-05-08T05:39:54.969Z,100853.95
2018-05-08T05:42:23.136Z,100848.06
2018-05-08T05:44:51.322Z,100845.39
2018-05-08T05:47:19.485Z,100841.45
2018-05-08T05:49:47.646Z,100842.62
2018-05-08T05:52:15.812Z,100841.25
2018-05-08T05:54:44.003Z,100843.09
2018-05-08T05:57:12.167Z,100841.52
2018-05-08T05:59:40.378Z,100838.80
2018-05-08T06:02:08.546Z,100839.21
2018-05-08T06:04:36.724Z,100831.30
2018-05-08T06:07:04.911Z,100827.77
2018-05-08T06:09:33.120Z,100833.27
2018-05-08T06:12:01.381Z,100831.55
2018-05-08T06:14:29.484Z,100821.92
2018-05-08T06:16:57.705Z,100821.79
2018-05-08T06:19:25.917Z,100815.22
2018-05-08T06:21:54.252Z,100815.69
2018-05-08T06:24:22.434Z,100820.06
2018-05-08T06:26:50.611Z,100811.58
2018-05-08T06:29:18.824Z,100801.53
2018-05-08T06:31:47.020Z,100804.09
2018-05-08T06:34:15.252Z,100799.52
2018-05-08T06:36:43.425Z,100800.76
2018-05-08T06:39:11.778Z,100805.72
2018-05-08T06:41:39.857Z,100805.06
2018-05-08T06:44:08.018Z,100803.58
2018-05-08T06:46:36.216Z,100799.72
2018-05-08T06:49:04.397Z,100798.92
2018-05-08T06:51:32.597Z,100796.13
2018-05-08T06:54:00.745Z,100789.76
2018-05-08T06:56:28.932Z,100794.34
2018-05-08T06:58:57.128Z,100796.48
2018-05-08T07:01:25.335Z,100794.35
2018-05-08T07:03:55.566Z,100794.53
2018-05-08T07:06:29.203Z,100789.09
2018-05-08T07:08:57.420Z,100791.27
2018-05-08T07:11:25.611Z,100796.59
2018-05-08T07:13:53.813Z,100794.63
2018-05-08T07:16:21.997Z,100788.66
2018-05-08T07:18:50.180Z,100791.30
2018-05-08T07:21:18.376Z,100787.28
2018-05-08T07:23:46.531Z,100788.95
2018-05-08T07:26:14.726Z,100791.36
2018-05-08T07:32:15.046Z,100783.26
2018-05-08T07:34:43.242Z,100779.06
2018-05-08T07:37:11.414Z,100780.17
2018-05-08T07:39:39.587Z,100769.59
2018-05-08T07:42:07.788Z,100776.62
2018-05-08T07:44:35.967Z,100771.16
2018-05-08T07:47:04.136Z,100773.36
2018-05-08T07:49:32.396Z,100776.97
2018-05-08T07:52:00.579Z,100773.20
2018-05-08T07:54:37.721Z,100774.25
2018-05-08T07:57:05.977Z,100774.52
2018-05-08T07:59:34.297Z,100766.86
2018-05-08T08:02:02.505Z,100764.23
2018-05-08T08:04:30.794Z,100760.20
2018-05-08T08:06:58.928Z,100762.72
2018-05-08T08:09:27.110Z,100763.39
2018-05-08T08:11:55.286Z,100753.59
2018-05-08T08:14:23.553Z,100758.47
2018-05-08T08:16:51.931Z,100755.04
2018-05-08T08:19:20.141Z,100757.47
2018-05-08T08:21:48.390Z,100754.06
2018-05-08T08:24:16.557Z,100759.55
2018-05-08T08:26:44.759Z,100756.16
2018-05-08T08:29:12.958Z,100752.98
2018-05-08T08:31:41.213Z,100756.48
2018-05-08T08:34:09.378Z,100755.72
2018-05-08T08:36:37.642Z,100755.72
2018-05-08T08:39:06.048Z,100748.22
2018-05-08T08:41:34.247Z,100746.96
2018-05-08T08:44:02.456Z,100739.80
2018-05-08T08:46:30.664Z,100741.38
2018-05-08T08:48:58.862Z,100735.56
2018-05-08T08:51:27.084Z,100733.14
2018-05-08T08:53:55.266Z,100728.14
2018-05-08T08:56:23.449Z,100733.19
2018-05-08T08:58:51.627Z,100730.28
2018-05-08T09:01:21.311Z,100717.66
2018-05-08T09:03:49.587Z,100712.20
2018-05-08T09:06:17.756Z,100712.14
2018-05-08T09:08:45.933Z,100705.58
2018-05-08T09:11:14.249Z,100709.88
2018-05-08T09:13:42.347Z,100708.22
2018-05-08T09:16:10.538Z,100708.22
2018-05-08T09:18:38.773Z,100703.38
2018-05-08T09:21:06.931Z,100705.30
2018-05-08T09:23:35.193Z,100699.47
2018-05-08T09:26:03.382Z,100696.67
2018-05-08T09:28:31.625Z,100692.38
2018-05-08T09:30:59.836Z,100689.16
2018-05-08T09:33:28.002Z,100687.34
2018-05-08T09:35:56.190Z,100683.63
2018-05-08T09:38:24.387Z,100679.68
2018-05-08T09:40:52.612Z,100676.34
2018-05-08T09:43:20.784Z,100670.91
2018-05-08T09:45:49.979Z,100674.34
2018-05-08T09:48:18.167Z,100671.13
2018-05-08T09:50:46.333Z,100663.55
2018-05-08T09:53:14.507Z,100662.18
2018-05-08T09:55:42.704Z,100661.52
2018-05-08T09:58:10.852Z,100656.10
2018-05-08T10:00:38.995Z,100652.31
2018-05-08T10:03:07.207Z,100647.16
2018-05-08T10:05:35.362Z,100635.36
2018-05-08T10:08:09.698Z,100645.42
2018-05-08T10:10:37.853Z,100636.70
2018-05-08T10:13:06.053Z,100637.82
2018-05-08T10:15:34.172Z,100629.12
2018-05-08T10:18:02.371Z,100623.57
2018-05-08T10:20:30.571Z,100625.92
2018-05-08T10:22:58.723Z,100615.67
2018-05-08T10:25:26.889Z,100613.28
2018-05-08T10:27:55.080Z,100604.19
2018-05-08T10:30:23.239Z,100606.93
2018-05-08T10:32:51.415Z,100596.91
2018-05-08T10:35:19.620Z,100598.08
2018-05-08T10:37:47.792Z,100593.80
2018-05-08T10:40:15.965Z,100592.58
2018-05-08T10:42:44.117Z,100599.14
2018-05-08T10:45:12.310Z,100583.97
2018-05-08T10:47:40.468Z,100578.36
2018-05-08T10:50:08.638Z,100581.27
2018-05-08T10:52:36.841Z,100578.55
2018-05-08T10:55:05.001Z,100576.43
2018-05-08T10:57:33.258Z,100574.72
2018-05-08T11:00:01.561Z,100571.03
2018-05-08T11:02:29.714Z,100569.50
2018-05-08T11:04:57.896Z,100566.02
2018-05-08T11:07:26.050Z,100557.06
2018-05-08T11:09:54.281Z,100563.20
2018-05-08T11:12:22.474Z,100551.83
2018-05-08T11:14:50.680Z,100555.37
2018-05-08T11:17:18.868Z,100546.89
2018-05-08T11:19:47.150Z,100545.60
2018-05-08T11:22:15.226Z,100537.60
2018-05-08T11:24:43.484Z,100543.85
2018-05-08T11:27:11.591Z,100537.92
2018-05-08T11:29:39.743Z,100537.19
2018-05-08T11:32:07.917Z,100536.84
2018-05-08T11:34:36.155Z,100531.64
2018-05-08T11:37:04.330Z,100543.20
2018-05-08T11:39:32.514Z,100542.88
2018-05-08T11:42:00.678Z,100543.70
2018-05-08T11:44:28.863Z,100527.94
2018-05-08T11:46:57.088Z,100529.90
2018-05-08T11:49:25.281Z,100521.84
2018-05-08T11:51:53.452Z,100512.01
2018-05-08T11:54:21.676Z,100520.03
2018-05-08T11:56:49.897Z,100515.48
2018-05-08T11:59:18.045Z,100516.18
2018-05-08T12:01:46.230Z,100523.37
2018-05-08T12:04:14.525Z,100511.74
2018-05-08T12:06:42.723Z,100508.56
2018-05-08T12:09:10.979Z,100506.56
2018-05-08T12:11:39.163Z,100502.99
2018-05-08T12:14:07.344Z,100508.03
2018-05-08T12:16:35.490Z,100496.47
2018-05-08T12:19:03.680Z,100490.73
2018-05-08T12:21:31.883Z,100496.10
2018-05-08T12:24:00.090Z,100494.91
2018-05-08T12:26:28.231Z,100490.16
2018-05-08T12:28:56.459Z,100479.44
2018-05-08T12:31:24.602Z,100477.06
2018-05-08T12:33:52.814Z,100482.42
2018-05-08T12:36:20.985Z,100477.06
2018-05-08T12:38:49.253Z,100481.22
2018-05-08T12:41:17.480Z,100461.27
2018-05-08T12:43:45.706Z,100473.32
2018-05-08T12:46:13.898Z,100470.35
2018-05-08T12:48:42.135Z,100464.66
2018-05-08T12:51:10.348Z,100465.13
2018-05-08T12:53:38.520Z,100463.66
2018-05-08T12:56:06.962Z,100448.80
2018-05-08T12:58:35.159Z,100435.57
2018-05-08T13:01:03.363Z,100448.23
2018-05-08T13:03:31.541Z,100448.83
2018-05-08T13:05:59.733Z,100443.84
2018-05-08T13:08:27.925Z,100440.91
2018-05-08T13:10:56.196Z,100442.30
2018-05-08T13:13:24.286Z,100434.33
2018-05-08T13:15:52.455Z,100435.34
2018-05-08T13:18:20.762Z,100440.55
2018-05-08T13:20:48.820Z,100445.36
2018-05-08T13:23:17.079Z,100437.53
2018-05-08T13:28:12.609Z,100434.80
2018-05-08T13:30:40.885Z,100431.64
2018-05-08T13:33:09.023Z,100437.30
2018-05-08T13:35:37.183Z,100425.86
2018-05-08T13:38:05.596Z,100433.80
2018-05-08T13:40:33.789Z,100427.26
2018-05-08T13:43:02.014Z,100424.88
2018-05-08T13:45:30.264Z,100427.32
2018-05-08T13:47:58.463Z,100416.69
2018-05-08T13:50:26.781Z,100415.64
2018-05-08T13:52:54.878Z,100415.78
2018-05-08T13:55:25.192Z,100412.48
2018-05-08T13:57:56.187Z,100411.23
2018-05-08T14:00:24.449Z,100407.33
2018-05-08T14:02:52.634Z,100409.00
2018-05-08T14:05:20.790Z,100412.41
2018-05-08T14:07:48.968Z,100409.23
2018-05-08T14:10:17.164Z,100402.23
2018-05-08T14:12:45.348Z,100395.28
2018-05-08T14:15:13.529Z,100389.13
2018-05-08T14:17:41.723Z,100395.14
2018-05-08T14:20:09.913Z,100386.46
2018-05-08T14:22:38.093Z,100379.19
2018-05-08T14:25:06.270Z,100367.95
2018-05-08T14:27:34.462Z,100367.05
2018-05-08T14:30:02.665Z,100370.27
2018-05-08T14:32:30.876Z,100371.40
2018-05-08T14:34:59.043Z,100372.84
2018-05-08T14:37:27.276Z,100364.21
2018-05-08T14:39:55.469Z,100362.21
2018-05-08T14:42:23.670Z,100360.19
2018-05-08T14:44:51.857Z,100364.81
2018-05-08T14:47:20.057Z,100353.09
2018-05-08T14:49:48.257Z,100352.52
2018-05-08T14:52:16.464Z,100355.76
2018-05-08T14:54:44.692Z,100355.06
2018-05-08T14:57:12.864Z,100352.13
2018-05-08T14:59:41.005Z,100355.72
2018-05-08T15:02:09.205Z,100359.36
2018-05-08T15:04:37.354Z,100349.75
2018-05-08T15:07:05.755Z,100346.95
2018-05-08T15:09:33.922Z,100345.97
2018-05-08T15:12:02.092Z,100342.84
2018-05-08T15:14:30.273Z,100338.39
2018-05-08T15:16:58.421Z,100341.20
2018-05-08T15:19:26.619Z,100349.55
2018-05-08T15:21:54.974Z,100342.14
2018-05-08T15:24:23.042Z,100342.00
2018-05-08T15:26:51.230Z,100337.81
2018-05-08T15:29:19.388Z,100329.25
2018-05-08T15:31:47.592Z,100332.33
2018-05-08T15:34:15.761Z,100328.45
2018-05-08T15:36:43.920Z,100328.13
2018-05-08T15:39:12.091Z,100324.11
2018-05-08T15:41:43.761Z,100315.72
2018-05-08T15:44:11.961Z,100314.60
2018-05-08T15:46:40.245Z,100313.48
2018-05-08T15:49:08.459Z,100306.35
2018-05-08T15:51:36.670Z,100309.42
2018-05-08T15:54:04.916Z,100306.52
2018-05-08T15:56:33.290Z,100308.76
2018-05-08T15:59:01.499Z,100305.23
2018-05-08T16:01:29.655Z,100300.34
2018-05-08T16:03:57.841Z,100310.48
2018-05-08T16:06:26.046Z,100302.83
2018-05-08T16:08:54.179Z,100305.77
2018-05-08T16:11:22.362Z,100299.58
2018-05-08T16:13:50.528Z,100302.69
2018-05-08T16:16:18.733Z,100303.14
2018-05-08T16:18:46.917Z,100300.48
2018-05-08T16:21:15.107Z,100304.39
2018-05-08T16:23:43.298Z,100299.78
2018-05-08T16:26:11.564Z,100305.20
2018-05-08T16:28:39.754Z,100296.31
2018-05-08T16:31:07.953Z,100302.22
2018-05-08T16:33:36.125Z,100299.27
2018-05-08T16:36:04.361Z,100293.39
2018-05-08T16:38:32.668Z,100292.03
2018-05-08T16:41:00.854Z,100293.86
2018-05-08T16:43:29.036Z,100291.91
2018-05-08T16:45:57.203Z,100293.30
2018-05-08T16:48:31.367Z,100287.44
2018-05-08T16:50:59.510Z,100282.10
2018-05-08T16:53:27.696Z,100290.52
2018-05-08T16:55:55.889Z,100290.65
2018-05-08T16:58:24.076Z,100290.22
2018-05-08T17:00:52.276Z,100284.48
2018-05-08T17:03:20.509Z,100287.30
2018-05-08T17:05:48.702Z,100285.76
2018-05-08T17:08:16.904Z,100280.43
2018-05-08T17:10:48.171Z,100279.44
2018-05-08T17:13:16.401Z,100273.57
2018-05-08T17:15:44.589Z,100278.34
2018-05-08T17:18:12.778Z,100280.16
2018-05-08T17:20:40.958Z,100277.36
2018-05-08T17:23:09.147Z,100279.70
2018-05-08T17:25:37.390Z,100277.19
2018-05-08T17:28:05.507Z,100280.28
2018-05-08T17:30:33.706Z,100271.77
2018-05-08T17:33:01.911Z,100270.92
2018-05-08T17:35:30.985Z,100273.57
2018-05-08T17:37:59.184Z,100273.16
2018-05-08T17:40:27.379Z,100276.90
2018-05-08T17:42:55.607Z,100276.34
2018-05-08T17:45:23.883Z,100278.16
2018-05-08T17:47:52.103Z,100275.22
2018-05-08T17:50:20.302Z,100270.84
2018-05-08T17:52:48.540Z,100282.69
2018-05-08T17:55:16.907Z,100287.42
2018-05-08T17:57:45.113Z,100286.98
2018-05-08T18:00:13.658Z,100288.19
2018-05-08T18:02:41.837Z,100283.98
2018-05-08T18:05:10.089Z,100286.15
2018-05-08T18:07:38.257Z,100284.37
2018-05-08T18:10:06.799Z,100285.43
2018-05-08T18:12:35.075Z,100286.05
2018-05-08T18:15:03.296Z,100287.53
2018-05-08T18:17:31.542Z,100288.13
2018-05-08T18:19:59.691Z,100281.90
2018-05-08T18:22:27.890Z,100286.58
2018-05-08T18:24:56.084Z,100280.29
2018-05-08T18:27:24.314Z,100281.11
2018-05-08T18:29:52.497Z,100276.26
2018-05-08T18:32:20.734Z,100282.23
2018-05-08T18:34:48.916Z,100275.56
2018-05-08T18:37:17.107Z,100270.98
2018-05-08T18:39:45.268Z,100278.08
2018-05-08T18:42:13.492Z,100276.70
2018-05-08T18:44:42.540Z,100272.11
2018-05-08T18:47:10.722Z,100270.03
2018-05-08T18:49:39.055Z,100274.65
2018-05-08T18:52:07.638Z,100274.48
2018-05-08T18:54:35.761Z,100272.67
2018-05-08T18:57:04.031Z,100271.63
2018-05-08T18:59:32.115Z,100274.09
2018-05-08T19:02:00.323Z,100277.30
2018-05-08T19:04:28.496Z,100285.38
2018-05-08T19:06:56.775Z,100283.25
2018-05-08T19:09:25.108Z,100292.05
2018-05-08T19:11:53.429Z,100297.37
2018-05-08T19:14:22.637Z,100299.64
2018-05-08T19:16:50.904Z,100301.36
2018-05-08T19:19:37.508Z,100304.77
2018-05-08T19:22:05.657Z,100306.75
2018-05-08T19:24:34.465Z,100303.45
2018-05-08T19:27:02.854Z,100305.52
2018-05-08T19:29:59.392Z,100310.36
2018-05-08T19:32:27.579Z,100317.53
2018-05-08T19:35:14.938Z,100321.81
2018-05-08T19:38:10.924Z,100320.16
2018-05-08T19:40:39.103Z,100322.05
2018-05-08T19:43:07.333Z,100320.44
2018-05-08T19:45:35.528Z,100325.09
2018-05-08T19:48:03.759Z,100317.98
2018-05-08T19:50:31.931Z,100318.79
2018-05-08T19:53:00.217Z,100317.55
2018-05-08T19:55:28.443Z,100320.07
2018-05-08T19:57:56.829Z,100320.48
2018-05-08T20:00:25.052Z,100312.52
2018-05-08T20:02:53.255Z,100319.83
2018-05-08T20:05:21.414Z,100313.98
2018-05-08T20:07:49.629Z,100316.77
2018-05-08T20:10:17.773Z,100311.70
2018-05-08T20:12:45.959Z,100318.47
2018-05-08T20:15:14.152Z,100321.67
2018-05-08T20:17:42.341Z,100319.88
2018-05-08T20:20:12.012Z,100315.55
2018-05-08T20:22:38.707Z,100317.86
2018-05-08T20:25:10.100Z,100322.67
2018-05-08T20:27:38.233Z,100317.12
2018-05-08T20:30:06.452Z,100315.20
2018-05-08T20:32:34.607Z,100318.04
2018-05-08T20:35:02.999Z,100312.56
2018-05-08T20:37:31.331Z,100314.70
2018-05-08T20:39:59.628Z,100312.46
2018-05-08T20:42:27.785Z,100317.50
2018-05-08T20:44:55.973Z,100318.66
2018-05-08T20:47:24.166Z,100317.72
2018-05-08T20:49:52.357Z,100316.05
2018-05-08T20:52:20.568Z,100318.02
2018-05-08T20:54:48.756Z,100319.92
2018-05-08T20:57:16.940Z,100329.09
2018-05-08T20:59:45.135Z,100325.78
2018-05-08T21:02:13.306Z,100327.06
2018-05-08T21:04:41.512Z,100329.63
2018-05-08T21:07:09.804Z,100325.83
2018-05-08T21:09:38.018Z,100327.30
2018-05-08T21:12:06.208Z,100327.67
2018-05-08T21:14:34.386Z,100330.17
2018-05-08T21:17:02.677Z,100328.61
2018-05-08T21:19:30.849Z,100324.73
2018-05-08T21:21:59.887Z,100328.77
2018-05-08T21:24:28.006Z,100328.20
2018-05-08T21:26:56.177Z,100333.92
2018-05-08T21:29:44.281Z,100336.36
2018-05-08T21:32:12.481Z,100332.06
2018-05-08T21:34:40.662Z,100325.51
2018-05-08T21:37:08.828Z,100328.73
2018-05-08T21:39:37.014Z,100328.75
2018-05-08T21:42:05.194Z,100325.79
2018-05-08T21:44:33.384Z,100328.97
2018-05-08T21:47:01.648Z,100323.19
2018-05-08T21:49:29.824Z,100326.83
2018-05-08T21:51:57.996Z,100327.30
2018-05-08T21:54:26.203Z,100323.38
2018-05-08T21:56:59.865Z,100323.62
2018-05-08T21:59:28.005Z,100323.52
2018-05-08T22:01:56.195Z,100327.78
2018-05-08T22:04:24.371Z,100326.53
2018-05-08T22:06:52.550Z,100328.47
2018-05-08T22:09:20.721Z,100331.95
2018-05-08T22:11:48.867Z,100332.27
2018-05-08T22:14:17.082Z,100331.44
2018-05-08T22:16:45.234Z,100329.84
2018-05-08T22:19:13.424Z,100326.98
2018-05-08T22:21:41.587Z,100330.28
2018-05-08T22:24:09.735Z,100320.43
2018-05-08T22:26:37.935Z,100322.33
2018-05-08T22:29:06.156Z,100326.27
2018-05-08T22:31:34.320Z,100326.16
2018-05-08T22:34:02.521Z,100324.66
2018-05-08T22:36:30.710Z,100319.48
2018-05-08T22:38:58.909Z,100315.16
2018-05-08T22:41:27.068Z,100318.01
2018-05-08T22:43:55.247Z,100312.73
2018-05-08T22:46:23.417Z,100313.05
2018-05-08T22:48:51.649Z,100313.34
2018-05-08T22:51:19.821Z,100315.06
2018-05-08T22:53:48.000Z,100306.72
2018-05-08T22:56:16.173Z,100305.63
2018-05-08T22:58:44.355Z,100307.56
2018-05-08T23:01:12.573Z,100304.70
2018-05-08T23:03:40.738Z,100298.89
2018-05-08T23:06:08.909Z,100293.06
2018-05-08T23:08:37.065Z,100291.58
2018-05-08T23:11:05.244Z,100293.69
2018-05-08T23:13:33.655Z,100287.58
2018-05-08T23:16:02.031Z,100289.36
2018-05-08T23:18:30.255Z,100285.55
2018-05-08T23:20:58.439Z,100282.27
2018-05-08T23:23:26.612Z,100280.91
2018-05-08T23:25:54.805Z,100278.26
2018-05-08T23:28:22.996Z,100282.16
2018-05-08T23:30:51.175Z,100284.41
2018-05-08T23:33:19.335Z,100277.63
2018-05-08T23:35:47.514Z,100276.77
2018-05-08T23:38:15.771Z,100279.96
2018-05-08T23:40:44.075Z,100276.98
2018-05-08T23:43:12.223Z,100270.13
2018-05-08T23:45:40.427Z,100271.08
2018-05-08T23:48:08.616Z,100273.72
2018-05-08T23:50:36.776Z,100271.99
2018-05-08T23:53:04.922Z,100269.22
2018-05-08T23:55:33.089Z,100274.63
2018-05-08T23:58:01.279Z,100270.91
